createdAt,value
2023-02-26T00:01:43.193Z,13.18
2023-02-26T00:04:12.309Z,13.55
2023-02-26T00:06:41.317Z,13.15
2023-02-26T00:09:08.858Z,14.30
2023-02-26T00:11:37.796Z,14.80
2023-02-26T00:14:10.341Z,14.07
2023-02-26T00:16:38.639Z,12.70
2023-02-26T00:19:07.869Z,13.48
2023-02-26T00:21:37.791Z,12.90
2023-02-26T00:24:05.726Z,12.35
2023-02-26T00:26:35.184Z,12.52
2023-02-26T00:29:03.987Z,12.88
2023-02-26T00:31:32.233Z,13.97
2023-02-26T00:34:00.491Z,13.68
2023-02-26T00:36:40.741Z,11.38
2023-02-26T00:39:22.697Z,10.90
2023-02-26T00:41:50.740Z,12.52
2023-02-26T00:44:19.476Z,12.27
2023-02-26T00:46:54.738Z,14.02
2023-02-26T00:49:35.730Z,11.40
2023-02-26T00:52:10.847Z,15.25
2023-02-26T00:54:38.409Z,13.15
2023-02-26T00:57:06.158Z,11.07
2023-02-26T00:59:33.645Z,12.50
2023-02-26T01:02:02.413Z,13.82
2023-02-26T01:04:30.684Z,12.52
2023-02-26T01:06:59.140Z,15.93
2023-02-26T01:09:30.072Z,13.25
2023-02-26T01:11:59.934Z,11.85
2023-02-26T01:14:28.538Z,13.18
2023-02-26T01:17:02.909Z,11.95
2023-02-26T01:19:38.881Z,12.13
2023-02-26T01:22:14.338Z,12.02
2023-02-26T01:24:43.593Z,10.98
2023-02-26T01:27:11.812Z,13.10
2023-02-26T01:29:39.648Z,14.48
2023-02-26T01:32:16.241Z,13.73
2023-02-26T01:34:51.324Z,13.45
2023-02-26T01:37:28.964Z,13.52
2023-02-26T01:40:26.797Z,14.93
2023-02-26T01:43:03.006Z,15.02
2023-02-26T01:45:35.321Z,11.95
2023-02-26T01:48:07.203Z,11.65
2023-02-26T01:50:36.772Z,9.45
2023-02-26T01:53:18.911Z,12.13
2023-02-26T01:55:51.512Z,12.23
2023-02-26T01:58:21.575Z,13.13
2023-02-26T02:00:49.208Z,11.50
2023-02-26T02:03:16.957Z,12.10
2023-02-26T02:05:49.042Z,12.30
2023-02-26T02:08:17.189Z,12.15
2023-02-26T02:10:51.293Z,13.65
2023-02-26T02:13:32.095Z,11.98
2023-02-26T02:16:12.527Z,13.20
2023-02-26T02:18:49.674Z,11.60
2023-02-26T02:21:50.035Z,11.32
2023-02-26T02:24:25.690Z,12.63
2023-02-26T02:27:13.751Z,11.90
2023-02-26T02:30:02.108Z,10.75
2023-02-26T02:32:37.103Z,11.57
2023-02-26T02:35:13.592Z,12.07
2023-02-26T02:37:46.436Z,11.45
2023-02-26T02:40:18.384Z,13.10
2023-02-26T02:42:52.521Z,13.43
2023-02-26T02:45:26.637Z,13.27
2023-02-26T02:48:01.717Z,11.55
2023-02-26T02:50:34.549Z,9.95
2023-02-26T02:53:07.189Z,10.25
2023-02-26T02:55:38.765Z,11.32
2023-02-26T02:58:10.940Z,14.18
2023-02-26T03:00:44.610Z,12.65
2023-02-26T03:03:19.982Z,9.43
2023-02-26T03:05:47.885Z,12.43
2023-02-26T03:08:20.048Z,8.93
2023-02-26T03:10:48.071Z,12.23
2023-02-26T03:13:17.434Z,9.80
2023-02-26T03:15:55.288Z,11.93
2023-02-26T03:18:36.774Z,12.13
2023-02-26T03:21:11.785Z,9.55
2023-02-26T03:23:45.560Z,12.52
2023-02-26T03:26:17.920Z,13.30
2023-02-26T03:28:51.708Z,13.35
2023-02-26T03:31:25.993Z,11.70
2023-02-26T03:34:00.584Z,9.73
2023-02-26T03:36:33.918Z,12.23
2023-02-26T03:39:27.334Z,9.18
2023-02-26T03:42:02.219Z,12.52
2023-02-26T03:44:41.364Z,11.40
2023-02-26T03:47:12.785Z,13.52
2023-02-26T03:49:46.441Z,11.77
2023-02-26T03:52:15.401Z,11.25
2023-02-26T03:55:10.877Z,11.45
2023-02-26T03:58:05.436Z,12.37
2023-02-26T04:00:43.298Z,10.63
2023-02-26T04:03:15.925Z,11.68
2023-02-26T04:05:49.109Z,13.05
2023-02-26T04:08:16.870Z,10.43
2023-02-26T04:10:48.698Z,10.13
2023-02-26T04:13:16.301Z,11.90
2023-02-26T04:15:43.995Z,12.27
2023-02-26T04:18:11.723Z,13.57
2023-02-26T04:20:39.304Z,12.60
2023-02-26T04:23:08.641Z,10.90
2023-02-26T04:25:36.857Z,12.40
2023-02-26T04:28:05.015Z,11.90
2023-02-26T04:30:34.129Z,15.35
2023-02-26T04:33:03.968Z,12.25
2023-02-26T04:35:31.665Z,16.02
2023-02-26T04:37:59.249Z,13.98
2023-02-26T04:40:29.195Z,12.55
2023-02-26T04:45:27.114Z,12.27
2023-02-26T04:47:54.966Z,12.73
2023-02-26T04:50:22.632Z,13.23
2023-02-26T04:52:52.821Z,12.93
2023-02-26T04:55:20.619Z,13.27
2023-02-26T04:57:49.812Z,11.95
2023-02-26T05:00:22.627Z,11.63
2023-02-26T05:02:50.223Z,11.68
2023-02-26T05:05:18.050Z,11.80
2023-02-26T05:07:45.761Z,11.73
2023-02-26T05:10:16.042Z,12.73
2023-02-26T05:12:43.691Z,10.85
2023-02-26T05:15:12.989Z,12.55
2023-02-26T05:17:40.709Z,11.10
2023-02-26T05:20:09.984Z,11.90
2023-02-26T05:22:38.240Z,11.73
2023-02-26T05:25:06.658Z,10.93
2023-02-26T05:27:34.545Z,10.27
2023-02-26T05:30:02.087Z,10.93
2023-02-26T05:32:31.351Z,12.95
2023-02-26T05:34:59.569Z,13.10
2023-02-26T05:37:27.509Z,12.13
2023-02-26T05:39:55.562Z,11.02
2023-02-26T05:42:23.068Z,11.85
2023-02-26T05:44:50.889Z,11.35
2023-02-26T05:47:18.381Z,10.50
2023-02-26T05:49:47.678Z,11.90
2023-02-26T05:52:15.698Z,12.95
2023-02-26T05:54:43.189Z,11.48
2023-02-26T05:57:10.956Z,11.88
2023-02-26T05:59:38.504Z,11.50
2023-02-26T06:02:06.124Z,11.88
2023-02-26T06:04:34.382Z,11.02
2023-02-26T06:07:03.795Z,12.93
2023-02-26T06:09:31.574Z,9.45
2023-02-26T06:11:59.120Z,13.65
2023-02-26T06:14:27.073Z,13.02
2023-02-26T06:16:55.158Z,10.30
2023-02-26T06:19:23.337Z,11.15
2023-02-26T06:21:51.269Z,14.57
2023-02-26T06:24:20.645Z,10.20
2023-02-26T06:26:48.148Z,19.02
2023-02-26T06:29:16.276Z,16.52
2023-02-26T06:31:44.087Z,13.02
2023-02-26T06:34:11.908Z,10.85
2023-02-26T06:36:39.757Z,13.68
2023-02-26T06:39:07.494Z,13.07
2023-02-26T06:41:36.707Z,14.82
2023-02-26T06:44:04.816Z,15.90
2023-02-26T06:46:32.520Z,11.70
2023-02-26T06:49:00.622Z,11.45
2023-02-26T06:51:28.303Z,18.58
2023-02-26T06:53:56.482Z,14.15
2023-02-26T06:56:25.161Z,20.65
2023-02-26T06:58:55.561Z,16.98
2023-02-26T07:01:23.307Z,20.83
2023-02-26T07:03:51.314Z,20.23
2023-02-26T07:06:27.471Z,17.65
2023-02-26T07:08:56.136Z,28.48
2023-02-26T07:11:24.497Z,24.40
2023-02-26T07:13:52.281Z,25.42
2023-02-26T07:16:22.380Z,35.67
2023-02-26T07:18:50.075Z,43.88
2023-02-26T07:21:17.918Z,38.25
2023-02-26T07:23:45.900Z,47.92
2023-02-26T07:26:13.672Z,36.33
2023-02-26T07:28:41.894Z,51.60
2023-02-26T07:31:10.486Z,43.67
2023-02-26T07:33:40.444Z,40.22
2023-02-26T07:36:08.387Z,40.83
2023-02-26T07:38:36.123Z,43.70
2023-02-26T07:41:04.444Z,42.72
2023-02-26T07:43:32.096Z,38.53
2023-02-26T07:45:59.928Z,39.55
2023-02-26T07:48:27.717Z,36.08
2023-02-26T07:50:57.007Z,40.63
2023-02-26T07:53:24.732Z,40.35
2023-02-26T07:55:52.480Z,40.85
2023-02-26T07:58:20.132Z,39.63
2023-02-26T08:00:48.010Z,124.68
2023-02-26T08:03:16.035Z,38.03
2023-02-26T08:05:43.596Z,36.67
2023-02-26T08:08:12.774Z,33.75
2023-02-26T08:10:42.037Z,24.65
2023-02-26T08:13:10.398Z,28.85
2023-02-26T08:15:38.262Z,27.52
2023-02-26T08:18:06.550Z,24.17
2023-02-26T08:20:34.284Z,24.33
2023-02-26T08:23:02.228Z,22.02
2023-02-26T08:25:31.392Z,23.48
2023-02-26T08:27:59.037Z,23.33
2023-02-26T08:30:26.797Z,24.80
2023-02-26T08:32:54.738Z,21.80
2023-02-26T08:35:22.302Z,20.73
2023-02-26T08:37:49.853Z,18.98
2023-02-26T08:40:17.530Z,28.58
2023-02-26T08:42:46.784Z,19.23
2023-02-26T08:45:14.797Z,21.33
2023-02-26T08:47:55.644Z,22.77
2023-02-26T08:50:25.328Z,20.27
2023-02-26T08:52:53.157Z,16.58
2023-02-26T08:55:20.902Z,17.80
2023-02-26T08:57:50.247Z,18.20
2023-02-26T09:00:18.548Z,22.45
2023-02-26T09:02:46.915Z,20.27
2023-02-26T09:05:14.990Z,28.75
2023-02-26T09:07:43.517Z,18.42
2023-02-26T09:10:13.104Z,18.63
2023-02-26T09:15:11.558Z,17.48
2023-02-26T09:17:39.382Z,16.67
2023-02-26T09:20:08.205Z,17.65
2023-02-26T09:22:36.131Z,17.05
2023-02-26T09:25:04.245Z,14.13
2023-02-26T09:27:31.857Z,17.08
2023-02-26T09:29:59.919Z,17.35
2023-02-26T09:32:29.152Z,16.10
2023-02-26T09:34:56.762Z,15.63
2023-02-26T09:37:24.422Z,15.85
2023-02-26T09:39:54.592Z,17.10
2023-02-26T09:42:31.972Z,16.48
2023-02-26T09:45:00.331Z,31.25
2023-02-26T09:47:34.073Z,57.03
2023-02-26T09:50:04.828Z,22.02
2023-02-26T09:52:38.620Z,15.85
2023-02-26T09:55:13.054Z,22.58
2023-02-26T09:57:44.376Z,23.13
2023-02-26T10:00:23.809Z,15.55
2023-02-26T10:03:10.375Z,19.33
2023-02-26T10:05:43.397Z,16.77
2023-02-26T10:08:16.917Z,15.27
2023-02-26T10:10:50.832Z,15.40
2023-02-26T10:13:25.652Z,22.05
2023-02-26T10:15:57.707Z,14.88
2023-02-26T10:18:31.106Z,14.40
2023-02-26T10:21:04.239Z,17.08
2023-02-26T10:23:38.872Z,15.25
2023-02-26T10:26:12.743Z,14.73
2023-02-26T10:28:54.852Z,19.20
2023-02-26T10:31:30.447Z,16.25
2023-02-26T10:34:09.154Z,15.00
2023-02-26T10:36:46.205Z,10.52
2023-02-26T10:39:23.939Z,21.02
2023-02-26T10:41:52.962Z,18.23
2023-02-26T10:44:28.915Z,14.57
2023-02-26T10:47:05.252Z,16.52
2023-02-26T10:49:47.007Z,16.80
2023-02-26T10:52:17.967Z,13.63
2023-02-26T10:54:56.965Z,14.68
2023-02-26T10:57:28.862Z,15.73
2023-02-26T10:59:56.549Z,15.75
2023-02-26T11:02:38.560Z,12.13
2023-02-26T11:05:16.492Z,17.10
2023-02-26T11:07:47.446Z,14.38
2023-02-26T11:10:19.447Z,15.40
2023-02-26T11:12:47.613Z,19.15
2023-02-26T11:15:18.065Z,15.07
2023-02-26T11:17:48.315Z,14.10
2023-02-26T11:20:31.169Z,17.30
2023-02-26T11:23:00.350Z,13.18
2023-02-26T11:25:30.912Z,12.75
2023-02-26T11:28:02.957Z,13.60
2023-02-26T11:30:33.337Z,15.38
2023-02-26T11:33:15.025Z,17.90
2023-02-26T11:35:45.753Z,13.43
2023-02-26T11:38:20.377Z,17.20
2023-02-26T11:40:52.311Z,16.73
2023-02-26T11:43:21.953Z,14.52
2023-02-26T11:48:24.802Z,16.40
2023-02-26T11:50:59.466Z,15.38
2023-02-26T11:53:32.882Z,15.18
2023-02-26T11:56:04.170Z,15.38
2023-02-26T11:58:36.571Z,12.57
2023-02-26T12:01:07.120Z,14.18
2023-02-26T12:03:37.710Z,13.85
2023-02-26T12:06:08.372Z,13.25
2023-02-26T12:08:38.390Z,18.30
2023-02-26T12:11:24.711Z,13.60
2023-02-26T12:14:05.788Z,12.82
2023-02-26T12:16:43.748Z,14.40
2023-02-26T12:19:21.625Z,13.93
2023-02-26T12:22:10.253Z,15.88
2023-02-26T12:25:07.900Z,13.23
2023-02-26T12:27:51.727Z,13.52
2023-02-26T12:30:39.819Z,13.25
2023-02-26T12:33:26.042Z,14.38
2023-02-26T12:36:02.881Z,15.55
2023-02-26T12:38:40.108Z,14.85
2023-02-26T12:41:30.957Z,14.02
2023-02-26T12:44:04.410Z,15.43
2023-02-26T12:46:59.323Z,14.13
2023-02-26T12:49:55.200Z,11.75
2023-02-26T12:53:07.092Z,15.20
2023-02-26T12:55:46.117Z,14.05
2023-02-26T12:58:34.260Z,15.73
2023-02-26T13:01:15.854Z,13.35
2023-02-26T13:04:08.190Z,18.35
2023-02-26T13:06:51.111Z,16.73
2023-02-26T13:09:31.150Z,14.00
2023-02-26T13:12:14.169Z,14.82
2023-02-26T13:14:53.927Z,15.73
2023-02-26T13:17:34.709Z,17.50
2023-02-26T13:20:12.137Z,15.23
2023-02-26T13:22:44.516Z,14.57
2023-02-26T13:25:20.147Z,14.55
2023-02-26T13:27:52.162Z,14.57
2023-02-26T13:30:26.304Z,17.13
2023-02-26T13:32:57.394Z,12.60
2023-02-26T13:35:30.110Z,15.52
2023-02-26T13:38:00.741Z,16.90
2023-02-26T13:40:48.335Z,16.98
2023-02-26T13:43:32.312Z,23.02
2023-02-26T13:46:13.490Z,20.83
2023-02-26T13:48:50.176Z,24.52
2023-02-26T13:51:30.927Z,27.13
2023-02-26T13:54:03.978Z,24.42
2023-02-26T13:56:52.522Z,24.45
2023-02-26T13:59:36.118Z,26.42
2023-02-26T14:02:41.577Z,27.67
2023-02-26T14:05:35.235Z,27.65
2023-02-26T14:08:20.544Z,31.00
2023-02-26T14:10:56.128Z,22.83
2023-02-26T14:13:31.136Z,28.95
2023-02-26T14:16:09.832Z,31.95
2023-02-26T14:18:41.907Z,27.30
2023-02-26T14:21:35.261Z,26.05
2023-02-26T14:24:06.273Z,30.00
2023-02-26T14:26:37.089Z,23.48
2023-02-26T14:29:13.178Z,32.38
2023-02-26T14:32:03.199Z,27.20
2023-02-26T14:34:34.850Z,30.00
2023-02-26T14:37:04.893Z,30.05
2023-02-26T14:39:39.268Z,27.20
2023-02-26T14:42:12.885Z,24.05
2023-02-26T14:44:43.911Z,21.63
2023-02-26T14:47:13.469Z,21.70
2023-02-26T14:49:44.119Z,23.73
2023-02-26T14:52:44.240Z,24.23
2023-02-26T14:55:43.403Z,18.20
2023-02-26T14:58:32.679Z,25.77
2023-02-26T15:01:22.831Z,20.05
2023-02-26T15:04:21.860Z,21.98
2023-02-26T15:07:06.416Z,23.10
2023-02-26T15:09:47.001Z,19.13
2023-02-26T15:12:27.059Z,21.60
2023-02-26T15:15:09.289Z,20.58
2023-02-26T15:17:52.538Z,21.15
2023-02-26T15:20:31.986Z,19.70
2023-02-26T15:23:16.595Z,19.48
2023-02-26T15:25:47.207Z,18.27
2023-02-26T15:28:22.375Z,24.25
2023-02-26T15:30:51.072Z,20.10
2023-02-26T15:33:20.509Z,21.38
2023-02-26T15:35:51.840Z,19.35
2023-02-26T15:38:19.933Z,15.48
2023-02-26T15:40:50.197Z,16.45
2023-02-26T15:43:24.753Z,16.58
2023-02-26T15:45:55.684Z,15.60
2023-02-26T15:48:29.324Z,15.93
2023-02-26T15:51:01.565Z,16.27
2023-02-26T15:53:33.090Z,20.27
2023-02-26T15:56:04.742Z,16.40
2023-02-26T15:58:38.867Z,17.35
2023-02-26T16:01:06.825Z,18.13
2023-02-26T16:03:38.078Z,13.32
2023-02-26T16:06:13.004Z,17.60
2023-02-26T16:08:41.481Z,15.00
2023-02-26T16:11:10.770Z,17.52
2023-02-26T16:13:43.129Z,17.63
2023-02-26T16:16:16.058Z,13.10
2023-02-26T16:18:46.726Z,16.30
2023-02-26T16:21:24.250Z,21.70
2023-02-26T16:23:54.744Z,17.13
2023-02-26T16:26:25.320Z,15.07
2023-02-26T16:29:00.694Z,18.35
2023-02-26T16:31:31.155Z,13.75
2023-02-26T16:34:01.496Z,15.43
2023-02-26T16:36:37.064Z,12.95
2023-02-26T16:39:16.160Z,15.18
2023-02-26T16:41:48.307Z,16.75
2023-02-26T16:44:49.522Z,18.88
2023-02-26T16:47:18.451Z,11.95
2023-02-26T16:49:48.042Z,13.07
2023-02-26T16:55:01.006Z,18.75
2023-02-26T16:57:35.522Z,16.20
2023-02-26T17:00:09.594Z,16.85
2023-02-26T17:02:38.993Z,14.90
2023-02-26T17:05:18.869Z,13.63
2023-02-26T17:07:54.687Z,13.38
2023-02-26T17:10:24.948Z,13.77
2023-02-26T17:12:53.877Z,12.32
2023-02-26T17:15:28.638Z,14.40
2023-02-26T17:17:56.453Z,13.55
2023-02-26T17:20:25.925Z,15.98
2023-02-26T17:22:56.574Z,11.63
2023-02-26T17:25:34.492Z,14.10
2023-02-26T17:28:02.712Z,18.45
2023-02-26T17:30:30.229Z,15.80
2023-02-26T17:32:57.871Z,14.05
2023-02-26T17:35:25.579Z,13.13
2023-02-26T17:37:55.148Z,11.73
2023-02-26T17:40:25.008Z,12.35
2023-02-26T17:42:53.069Z,14.70
2023-02-26T17:45:21.111Z,11.48
2023-02-26T17:47:48.884Z,12.27
2023-02-26T17:50:35.598Z,12.80
2023-02-26T17:53:05.417Z,12.40
2023-02-26T17:55:33.527Z,16.60
2023-02-26T17:58:01.301Z,13.93
2023-02-26T18:00:28.838Z,14.57
2023-02-26T18:02:56.464Z,15.50
2023-02-26T18:05:24.113Z,13.13
2023-02-26T18:07:51.750Z,13.57
2023-02-26T18:10:26.169Z,14.18
2023-02-26T18:12:53.665Z,14.32
2023-02-26T18:15:21.219Z,15.88
2023-02-26T18:17:48.805Z,15.43
2023-02-26T18:20:19.626Z,16.67
2023-02-26T18:22:47.601Z,13.23
2023-02-26T18:25:15.699Z,17.17
2023-02-26T18:27:45.675Z,14.52
2023-02-26T18:30:22.675Z,13.88
2023-02-26T18:32:50.349Z,14.38
2023-02-26T18:35:18.272Z,12.15
2023-02-26T18:37:46.860Z,14.77
2023-02-26T18:40:17.226Z,16.73
2023-02-26T18:42:46.850Z,14.07
2023-02-26T18:45:14.752Z,14.73
2023-02-26T18:47:42.943Z,11.82
2023-02-26T18:50:14.011Z,13.25
2023-02-26T18:52:41.551Z,12.15
2023-02-26T18:55:10.157Z,14.23
2023-02-26T18:57:38.053Z,13.57
2023-02-26T19:00:10.067Z,13.57
2023-02-26T19:02:37.804Z,13.35
2023-02-26T19:05:06.158Z,13.77
2023-02-26T19:07:33.961Z,12.30
2023-02-26T19:10:01.665Z,13.75
2023-02-26T19:12:29.217Z,14.25
2023-02-26T19:14:56.716Z,11.57
2023-02-26T19:17:25.795Z,17.85
2023-02-26T19:19:53.513Z,12.50
2023-02-26T19:22:21.029Z,13.88
2023-02-26T19:24:48.542Z,12.77
2023-02-26T19:27:16.209Z,12.15
2023-02-26T19:29:43.796Z,17.65
2023-02-26T19:32:11.612Z,12.27
2023-02-26T19:34:40.784Z,13.70
2023-02-26T19:37:08.615Z,13.88
2023-02-26T19:39:36.678Z,13.63
2023-02-26T19:42:04.753Z,15.85
2023-02-26T19:44:32.348Z,13.70
2023-02-26T19:47:00.204Z,10.80
2023-02-26T19:49:28.324Z,13.43
2023-02-26T19:51:58.226Z,13.45
2023-02-26T19:54:26.242Z,11.52
2023-02-26T19:56:53.979Z,10.38
2023-02-26T19:59:21.535Z,12.95
2023-02-26T20:01:49.095Z,11.27
2023-02-26T20:04:17.279Z,13.38
2023-02-26T20:06:45.660Z,14.85
2023-02-26T20:09:14.813Z,14.02
2023-02-26T20:11:42.467Z,14.63
2023-02-26T20:14:10.037Z,12.40
2023-02-26T20:16:37.554Z,14.10
2023-02-26T20:19:05.061Z,11.63
2023-02-26T20:21:32.663Z,13.18
2023-02-26T20:24:00.262Z,12.88
2023-02-26T20:26:29.289Z,12.88
2023-02-26T20:28:57.680Z,12.48
2023-02-26T20:31:25.889Z,14.48
2023-02-26T20:33:53.668Z,11.57
2023-02-26T20:36:21.288Z,10.65
2023-02-26T20:38:49.035Z,13.38
2023-02-26T20:41:16.772Z,9.52
2023-02-26T20:43:45.928Z,12.00
2023-02-26T20:46:13.500Z,9.93
2023-02-26T20:48:41.076Z,12.43
2023-02-26T20:51:09.013Z,12.40
2023-02-26T20:53:36.573Z,11.85
2023-02-26T20:56:04.684Z,9.43
2023-02-26T20:58:32.241Z,10.65
2023-02-26T21:01:01.228Z,10.77
2023-02-26T21:03:28.938Z,8.15
2023-02-26T21:05:56.487Z,8.88
2023-02-26T21:08:24.235Z,9.68
2023-02-26T21:10:51.836Z,10.07
2023-02-26T21:13:19.476Z,10.43
2023-02-26T21:15:48.744Z,9.60
2023-02-26T21:18:17.773Z,8.98
2023-02-26T21:20:45.485Z,8.52
2023-02-26T21:23:13.297Z,9.93
2023-02-26T21:25:40.898Z,8.45
2023-02-26T21:28:08.837Z,8.40
2023-02-26T21:30:36.558Z,10.02
2023-02-26T21:33:04.287Z,9.45
2023-02-26T21:35:33.233Z,9.00
2023-02-26T21:38:00.711Z,10.15
2023-02-26T21:40:28.336Z,9.27
2023-02-26T21:42:55.862Z,11.65
2023-02-26T21:45:23.552Z,10.52
2023-02-26T21:47:51.041Z,7.75
2023-02-26T21:50:18.681Z,12.18
2023-02-26T21:52:47.657Z,10.85
2023-02-26T21:55:15.336Z,8.95
2023-02-26T21:57:43.555Z,9.93
2023-02-26T22:00:12.226Z,10.55
2023-02-26T22:02:40.201Z,9.37
2023-02-26T22:05:08.158Z,9.70
2023-02-26T22:07:36.040Z,9.88
2023-02-26T22:10:06.269Z,7.78
2023-02-26T22:12:34.165Z,9.02
2023-02-26T22:15:01.662Z,10.27
2023-02-26T22:17:29.287Z,10.30
2023-02-26T22:19:57.075Z,10.05
2023-02-26T22:22:24.588Z,9.73
2023-02-26T22:24:52.090Z,9.05
2023-02-26T22:27:21.101Z,9.70
2023-02-26T22:29:48.591Z,8.20
2023-02-26T22:32:16.147Z,10.73
2023-02-26T22:34:45.903Z,10.75
2023-02-26T22:37:13.752Z,9.32
2023-02-26T22:39:41.572Z,10.68
2023-02-26T22:42:09.097Z,9.82
2023-02-26T22:44:38.280Z,12.27
2023-02-26T22:47:05.979Z,8.25
2023-02-26T22:49:33.628Z,9.77
2023-02-26T22:52:01.229Z,8.27
2023-02-26T22:54:29.173Z,12.00
2023-02-26T22:56:56.665Z,10.15
2023-02-26T22:59:24.502Z,12.85
2023-02-26T23:01:53.853Z,15.27
2023-02-26T23:04:21.615Z,13.35
2023-02-26T23:06:49.181Z,9.32
2023-02-26T23:09:16.941Z,11.45
2023-02-26T23:11:44.782Z,12.68
2023-02-26T23:14:12.342Z,13.52
2023-02-26T23:16:40.165Z,10.15
2023-02-26T23:19:09.076Z,10.77
2023-02-26T23:21:36.836Z,10.30
2023-02-26T23:24:05.090Z,10.75
2023-02-26T23:26:32.677Z,11.27
2023-02-26T23:29:00.284Z,11.07
2023-02-26T23:31:28.380Z,11.63
2023-02-26T23:33:56.118Z,9.57
2023-02-26T23:36:25.630Z,10.98
2023-02-26T23:38:53.180Z,10.70
2023-02-26T23:41:20.921Z,12.35
2023-02-26T23:43:48.464Z,9.15
2023-02-26T23:46:16.024Z,9.25
2023-02-26T23:48:43.633Z,7.82
2023-02-26T23:51:11.206Z,12.30
2023-02-26T23:53:40.169Z,11.00
2023-02-26T23:56:08.508Z,9.77
2023-02-26T23:58:36.050Z,10.50
